logo
App data

Command & Conquer 3: Tiberium Wars

The year is 2047. A massive nuclear fireball explodes high in the night sky, marking the dramatic beginning of the Third Tiberium War and the long-awaited return of the most groundbreaking Real-Time Strategy franchise of all time.
Store | Hub | SteamDB | Site
Developer: EA Los Angeles Publisher: Electronic Arts
Genre: Strategy
Languages: Dutch, English, French, German, Italian, Polish, Russian, Spanish - Spain, Swedish
Tags: Strategy (322), RTS (265), Base-Building (202), Sci-fi (144), Multiplayer (119), Singleplayer (93), Action (68), FMV (64), Atmospheric (28), Classic (23), Post-apocalyptic (18), Story Rich (10), Great Soundtrack (6)
Category: Single-player
Release date: Nov 13, 2009
Price: $14.99
Old userscore: 89% Metascore: 85%
Owners: 500,000 .. 1,000,000
Followers: 12,452
Peak concurrent players yesterday: 391
YouTube stats: 27,539 views and 221 comments for top 50 videos uploaded last week, 3 new videos uploaded yesterday.
Playtime total: 25:11 (average) 33:26 (median)

Steam Spy is still in beta, so expect major bugs.

Owners data:

Access restricted.

This feature is only available to users with special access rights. Sorry.

If you want to proceed, you need to register or log in first and then back Steam Spy on Patreon. Look for Indie or Pro pledge.

Don't forget to use the same email as on Steam Spy!

Audience in 2 weeks:

Access restricted.

This feature is only available to users with special access rights. Sorry.

If you want to proceed, you need to register or log in first and then back Steam Spy on Patreon. Look for Indie or Pro pledge.

Don't forget to use the same email as on Steam Spy!

Peak daily concurrent players:

CCU data courtesy of SteamDB. Used with permission.

Hourly concurrent players:

Daily Twitch stats:

Hourly Twitch stats:

Followers over time

Access restricted.

This feature is only available to users with special access rights. Sorry.

If you want to proceed, you need to register or log in first and then back Steam Spy on Patreon. Look for Indie or Pro pledge.

Don't forget to use the same email as on Steam Spy!

Views for top 50 videos on YouTube for this game:

Games similar to this one:

# Game Release date
Price
Score rank
(Userscore / Metascore)
Owners
Players
Playtime (Median)
1 NECROPOLIS: BRUTAL EDITION Jul 2016 $29.99N/A (N/A)200,000 .. 500,0000%00:00 (00:00)
2 Anno 2205 Nov 2, 2015 $39.99N/A (N/A/72%)500,000 .. 1,000,0009.09%00:01 (00:00)
3 Planetary Annihilation: TITANS Aug 18, 2015 $29.99N/A (N/A)500,000 .. 1,000,0000%00:00 (00:00)
4 Kelvin and the Infamous Machine Jul 21, 2016 $9.99N/A (N/A/79%)50,000 .. 100,0000%00:00 (00:00)
5 Crossout Jul 26, 2017 FreeN/A (N/A)2,000,000 .. 5,000,0002.34%09:40 (15:44)
6 Putrefaction Aug 7, 2015 $0.99N/A (N/A)50,000 .. 100,0000%00:00 (00:00)
7 SMITE Sep 8, 2015 FreeN/A (N/A/83%)10,000,000 .. 20,000,0002.81%06:08 (05:25)
8 The Surge May 15, 2017 $19.99N/A (N/A/72%)500,000 .. 1,000,0000%00:00 (00:00)
9 Day of the Tentacle Remastered Mar 21, 2016 $14.99N/A (N/A/86%)200,000 .. 500,0000%00:00 (00:00)
10 Thea: The Awakening Nov 20, 2015 $19.99N/A (N/A/73%)100,000 .. 200,0000%00:00 (00:00)
11 Darksiders II Deathinitive Edition Nov 5, 2015 $29.99N/A (N/A)1,000,000 .. 2,000,0000%00:00 (00:00)
12 80 Days Sep 28, 2015 $12.99N/A (N/A/84%)100,000 .. 200,0000%00:00 (00:00)
13 Azure Striker Gunvolt Aug 28, 2015 $14.99N/A (N/A)50,000 .. 100,0000%00:00 (00:00)
14 Dead Island: Riptide Definitive Edition May 31, 2016 $19.99N/A (N/A)200,000 .. 500,0003.23%06:59 (02:19)
15 Tap Heroes Jun 5, 2015 $2.99N/A (N/A)200,000 .. 500,0000%00:00 (00:00)
16 Firewatch Feb 9, 2016 $19.99N/A (N/A/81%)1,000,000 .. 2,000,0000%00:00 (00:00)
17 Portal Knights May 18, 2017 $19.99N/A (N/A/72%)500,000 .. 1,000,0000%00:00 (00:00)
18 Age of Mythology: Extended Edition May 8, 2014 $29.99N/A (N/A/66%)1,000,000 .. 2,000,0001.92%01:02 (00:20)
19 Max: The Curse of Brotherhood May 21, 2014 $14.99N/A (N/A)50,000 .. 100,0000%00:00 (00:00)
20 Panzer Corps Gold Mar 12, 2014 $29.99N/A (N/A/80%)100,000 .. 200,0000%00:00 (00:00)
21 Enemy Front Jun 10, 2014 $19.99N/A (N/A/52%)200,000 .. 500,0000%00:00 (00:00)
22 XCOM 2 Feb 4, 2016 $59.99N/A (N/A/88%)2,000,000 .. 5,000,0004.24%30:07 (48:17)
23 Dominions 4: Thrones of Ascension Dec 5, 2013 $34.99N/A (N/A)50,000 .. 100,0000%00:00 (00:00)
24 RUNNING WITH RIFLES Apr 2, 2015 $14.99N/A (N/A/78%)500,000 .. 1,000,0000%00:00 (00:00)
25 Killer is Dead - Nightmare Edition May 23, 2014 $19.99N/A (N/A)1,000,000 .. 2,000,0000%00:00 (00:00)
26 Worms World Party Remastered Jul 16, 2015 $14.99N/A (N/A)100,000 .. 200,0000%00:00 (00:00)
27 Dungeons 2 Apr 24, 2015 $19.99N/A (N/A/70%)1,000,000 .. 2,000,0000%00:00 (00:00)
28 Offworld Trading Company Apr 28, 2016 $29.99N/A (N/A/78%)500,000 .. 1,000,0000%00:00 (00:00)
29 Crimsonland Jun 11, 2014 $13.99N/A (N/A/68%)100,000 .. 200,0000%00:00 (00:00)
30 Evolve Stage 2 Feb 10, 2015 N/AN/A (N/A/77%)5,000,000 .. 10,000,0000%00:00 (00:00)
31 Blockstorm May 21, 2015 $4.99N/A (N/A)500,000 .. 1,000,0000%00:00 (00:00)
32 Death Road to Canada Jul 21, 2016 $14.99N/A (N/A)200,000 .. 500,0000%00:00 (00:00)
33 One Finger Death Punch Mar 3, 2014 $4.99N/A (N/A)500,000 .. 1,000,0000%00:00 (00:00)
34 Abyss Odyssey Jul 15, 2014 $14.99N/A (N/A/69%)200,000 .. 500,0000%00:00 (00:00)
35 Rise of the Tomb Raider Feb 9, 2016 $7.49N/A (N/A/86%)2,000,000 .. 5,000,0000.42%00:04 (00:01)
36 EARTH DEFENSE FORCE 4.1 The Shadow of New Despair Jul 18, 2016 $19.99N/A (N/A/79%)500,000 .. 1,000,0003.23%08:18 (02:46)
37 Endless Space 2 - Digital Deluxe Edition May 18, 2017 $9.99N/A (N/A)1,000,000 .. 2,000,0005%07:59 (05:19)
38 Starward Rogue Jan 20, 2016 $11.99N/A (N/A)50,000 .. 100,0000%00:00 (00:00)
39 Hearts of Iron IV Jun 6, 2016 $39.99N/A (N/A/83%)2,000,000 .. 5,000,00013.27%06:55 (07:02)
40 Forts Apr 19, 2017 $14.99N/A (N/A/74%)200,000 .. 500,0000%00:00 (00:00)
41 Dead Effect 2 May 6, 2016 $2.39N/A (N/A/53%)50,000 .. 100,0000%00:00 (00:00)
42 CLASH Nov 15, 2016 FreeN/A (N/A)50,000 .. 100,0000%00:00 (00:00)
43 Ben and Ed Dec 8, 2015 $9.99N/A (N/A)100,000 .. 200,0000%00:00 (00:00)
44 RWBY: Grimm Eclipse Jul 5, 2016 $19.99N/A (N/A)500,000 .. 1,000,0000%00:00 (00:00)
45 Lords of the Realm II Dec 3, 2015 $2.99N/A (N/A/77%)50,000 .. 100,0000%00:00 (00:00)
46 Swiftly Jan 26, 2016 $0.99N/A (N/A)50,000 .. 100,0000%00:00 (00:00)
47 Heaven Island - VR MMO Dec 23, 2015 $0.49N/A (N/A)1,000,000 .. 2,000,0000%00:00 (00:00)
48 River City Ransom: Underground Feb 27, 2017 $19.99N/A (N/A)200,000 .. 500,0000%00:00 (00:00)
49 VERGE:Lost chapter Oct 1, 2015 $0.99N/A (N/A)20,000 .. 50,0000%00:00 (00:00)
50 DESYNC Feb 28, 2017 $14.99N/A (N/A)50,000 .. 100,0000%00:00 (00:00)
51 BioShock 2 Remastered Sep 15, 2016 $19.99N/A (N/A)500,000 .. 1,000,0000%00:00 (00:00)
52 Rise of Nations: Extended Edition Jun 12, 2014 $19.99N/A (N/A/89%)1,000,000 .. 2,000,0000%00:00 (00:00)
53 A Story About My Uncle May 28, 2014 $14.99N/A (N/A/73%)5,000,000 .. 10,000,0000.27%00:01 (00:00)
54 Mini Metro Nov 6, 2015 $9.99N/A (N/A/77%)500,000 .. 1,000,0000%00:00 (00:00)
55 Homeworld: Deserts of Kharak Jan 20, 2016 $49.99N/A (N/A/79%)200,000 .. 500,0000%00:00 (00:00)
56 Sid Meier’s Civilization VI Oct 20, 2016 $59.99N/A (N/A/88%)5,000,000 .. 10,000,0006.06%12:17 (10:28)
57 Splatter - Zombiecalypse Now Jun 4, 2014 $6.99N/A (N/A)200,000 .. 500,0000%00:00 (00:00)
58 Endless Legend - Emperor Edition Sep 18, 2014 $7.49N/A (N/A/82%)1,000,000 .. 2,000,0000%00:00 (00:00)
59 Sid Meier's Starships Mar 12, 2015 $14.99N/A (N/A/64%)200,000 .. 500,0000%00:00 (00:00)
60 LARA CROFT AND THE TEMPLE OF OSIRIS Dec 8, 2014 $19.99N/A (N/A/73%)200,000 .. 500,0000%00:00 (00:00)
61 SuperPower 2 Steam Edition Apr 18, 2014 $9.99N/A (N/A)100,000 .. 200,0000%00:00 (00:00)
62 Call of Duty: Infinite Warfare Nov 3, 2016 $59.99N/A (N/A/73%)500,000 .. 1,000,0002.94%00:10 (00:03)
63 Star Ruler 2 Mar 27, 2015 $19.99N/A (N/A)100,000 .. 200,0000%00:00 (00:00)
64 Deponia: The Complete Journey Jul 8, 2014 $2.99N/A (N/A)1,000,000 .. 2,000,0000.87%00:02 (00:00)
65 Enigmatis: The Ghosts of Maple Creek Oct 16, 2014 $9.99N/A (N/A)100,000 .. 200,0000%00:00 (00:00)
66 Brigador: Up-Armored Edition Jun 2, 2016 $19.99N/A (N/A/70%)200,000 .. 500,0000%00:00 (00:00)
67 Solarix Apr 30, 2015 $19.99N/A (N/A/47%)100,000 .. 200,0000%00:00 (00:00)
68 Depth Nov 3, 2014 $19.99N/A (N/A/65%)500,000 .. 1,000,0000%00:00 (00:00)
69 Warhammer 40,000: Dawn of War - Game of the Year Edition Aug 7, 2007 $12.99N/A (N/A/86%)1,000,000 .. 2,000,0000%00:00 (00:00)
70 Call of Duty: Modern Warfare 2 Nov 12, 2009 $19.99N/A (N/A/86%)5,000,000 .. 10,000,0002.21%01:01 (01:00)
71 Warhammer 40,000: Dawn of War - Dark Crusade Aug 7, 2007 $12.99N/A (N/A/87%)1,000,000 .. 2,000,0000%00:00 (00:00)
72 Total War: EMPIRE – Definitive Edition Mar 4, 2009 $24.99N/A (N/A/90%)2,000,000 .. 5,000,0001.52%02:02 (00:40)
73 Total War: MEDIEVAL II – Definitive Edition Nov 15, 2006 $24.99N/A (N/A)1,000,000 .. 2,000,0001.43%01:58 (00:39)
74 Counter-Strike Nov 1, 2000 $9.99N/A (N/A/88%)10,000,000 .. 20,000,0002.46%01:30 (04:01)
75 Rome: Total War - Collection Aug 28, 2007 $12.99N/A (N/A/92%)1,000,000 .. 2,000,0000%00:00 (00:00)
76 Counter-Strike: Source Nov 1, 2004 $9.99N/A (N/A/88%)10,000,000 .. 20,000,0001.88%01:21 (01:31)
77 Sid Meier's Railroads! May 4, 2007 $9.99N/A (N/A/77%)200,000 .. 500,0000%00:00 (00:00)
78 Earth 2160 Apr 1, 2006 $1.99N/A (N/A/73%)100,000 .. 200,0000%00:00 (00:00)
79 Civilization IV: Beyond the Sword Jul 24, 2007 $9.99N/A (N/A/86%)500,000 .. 1,000,0000%00:00 (00:00)
80 Call of Duty 2 Oct 13, 2006 $19.99N/A (N/A/86%)500,000 .. 1,000,0000%00:00 (00:00)
81 Supreme Commander: Forged Alliance Sep 28, 2011 $12.99N/A (N/A/81%)500,000 .. 1,000,0002.9%00:49 (00:30)
82 Sid Meier's Civilization IV Oct 25, 2006 $19.99N/A (N/A/94%)1,000,000 .. 2,000,0000%00:00 (00:00)
83 Star Trek Online Jan 31, 2012 FreeN/A (N/A/66%)2,000,000 .. 5,000,0003.95%19:23 (19:19)
84 Sid Meier's Civilization III Complete Oct 25, 2006 $4.99N/A (N/A/90%)1,000,000 .. 2,000,0000%00:00 (00:00)
85 Prototype Jun 10, 2009 $19.99N/A (N/A/79%)500,000 .. 1,000,0000%00:00 (00:00)
86 Project Pulsation Dec 15, 2015 $4.99N/A (N/A)50,000 .. 100,0000%00:00 (00:00)
87 Tom Clancy's Rainbow Six Vegas 2 Apr 16, 2008 $9.99N/A (N/A/78%)500,000 .. 1,000,0000%00:00 (00:00)
88 Jelly Killer Mar 24, 2016 $3.99N/A (N/A)20,000 .. 50,0000%00:00 (00:00)
89 STAR WARS - The Force Unleashed Ultimate Sith Edition Nov 3, 2009 $19.99N/A (N/A/65%)1,000,000 .. 2,000,0000%00:00 (00:00)
90 Grow Up Aug 16, 2016 $9.99N/A (N/A/71%)100,000 .. 200,0000%00:00 (00:00)
91 Heroes of Might & Magic V: Tribes of the East Oct 10, 2008 $9.99N/A (N/A/70%)200,000 .. 500,0000%00:00 (00:00)
92 This Is the Police Aug 2, 2016 $14.99N/A (N/A)500,000 .. 1,000,0000%00:00 (00:00)
93 Assassin's Creed 2 Deluxe Edition Mar 9, 2010 $19.99N/A (N/A/86%)1,000,000 .. 2,000,0001.3%00:03 (00:01)
94 8-Bit Armies Apr 22, 2016 $14.99N/A (N/A/69%)100,000 .. 200,0000%00:00 (00:00)
95 Warhammer 40,000: Dawn of War II Feb 18, 2009 $19.99N/A (N/A/85%)2,000,000 .. 5,000,0001.27%00:01 (00:00)
96 Might and Magic: Heroes VII – Trial by Fire Aug 4, 2016 $29.99N/A (N/A)20,000 .. 50,0000%00:00 (00:00)
97 Sniper: Ghost Warrior Jun 24, 2010 $7.99N/A (N/A/55%)500,000 .. 1,000,0000%00:00 (00:00)
98 The Walking Dead: Michonne - A Telltale Miniseries Feb 23, 2016 $14.99N/A (N/A)200,000 .. 500,0000%00:00 (00:00)
99 Crysis Warhead Sep 17, 2008 $19.99N/A (N/A/84%)1,000,000 .. 2,000,0000%00:00 (00:00)
100 Planar Conquest May 30, 2016 $19.99N/A (N/A/53%)20,000 .. 50,0000%00:00 (00:00)
101 Batman: Arkham Asylum Game of the Year Edition Mar 26, 2010 $19.99N/A (N/A/91%)500,000 .. 1,000,0000%00:00 (00:00)
102 Duke Nukem 3D: 20th Anniversary World Tour Oct 11, 2016 $19.99N/A (N/A/72%)200,000 .. 500,00012.5%00:21 (00:07)
103 Command & Conquer: Red Alert 3 Jan 8, 2009 $19.99N/A (N/A/82%)500,000 .. 1,000,0005%12:25 (08:16)
104 ! That Bastard Is Trying To Steal Our Gold ! Mar 3, 2016 $2.99N/A (N/A)20,000 .. 50,0000%00:00 (00:00)
105 RIFT Mar 1, 2011 FreeN/A (N/A/84%)2,000,000 .. 5,000,0000%00:00 (00:00)
106 Masked Shooters 2 Jan 14, 2016 $0.99N/A (N/A)200,000 .. 500,0000%00:00 (00:00)
107 Warhammer 40,000: Dawn of War II Chaos Rising Mar 10, 2010 $19.99N/A (N/A/85%)1,000,000 .. 2,000,0001.59%23:04 (07:41)
108 Madness Cubed May 12, 2016 $1.99N/A (N/A)100,000 .. 200,0000%00:00 (00:00)
109 Supreme Commander 2 Mar 1, 2010 $12.99N/A (N/A/77%)200,000 .. 500,0001.3%01:05 (00:21)
110 Lost Castle / 失落城堡 Aug 31, 2016 $9.99N/A (N/A)1,000,000 .. 2,000,0000%00:00 (00:00)
111 Resident Evil 5 Sep 15, 2009 $19.99N/A (N/A/86%)1,000,000 .. 2,000,0001.01%00:01 (00:00)
112 Cyber City 2157: The Visual Novel May 4, 2016 $4.99N/A (N/A)200,000 .. 500,0000%00:00 (00:00)
113 Aliens vs. Predator Feb 16, 2010 $14.99N/A (N/A/68%)1,000,000 .. 2,000,0000%00:00 (00:00)
114 Prison Run and Gun Mar 16, 2016 $4.99N/A (N/A)20,000 .. 50,0000%00:00 (00:00)
115 Worms Reloaded Aug 26, 2010 $19.99N/A (N/A/79%)500,000 .. 1,000,0000%00:00 (00:00)
116 Particle Fleet: Emergence Sep 29, 2016 $14.99N/A (N/A)50,000 .. 100,0000%00:00 (00:00)
117 Assassin's Creed: Director's Cut Edition Apr 9, 2008 $19.99N/A (N/A/79%)500,000 .. 1,000,0000%00:00 (00:00)
118 Rock 'N' Roll Defense Aug 10, 2016 $0.99N/A (N/A)200,000 .. 500,0000%00:00 (00:00)
119 Command & Conquer 3: Kane's Wrath Nov 13, 2009 $14.99N/A (N/A/77%)200,000 .. 500,0000%00:00 (00:00)
120 Way of the Samurai 4 Jul 23, 2015 $24.99N/A (N/A/72%)100,000 .. 200,0000%00:00 (00:00)
121 Close Combat - Gateway to Caen Jun 6, 2014 $39.99N/A (N/A)50,000 .. 100,0000%00:00 (00:00)
122 Starion Tactics Sep 5, 2014 $9.99N/A (N/A)50,000 .. 100,0000%00:00 (00:00)
123 Master of Orion Aug 25, 2016 $24.99N/A (N/A/74%)500,000 .. 1,000,0000%00:00 (00:00)
124 Blitzkrieg Anthology Sep 16, 2014 $4.99N/A (N/A)200,000 .. 500,0000%00:00 (00:00)
125 GET EVEN Jun 20, 2017 $29.99N/A (N/A/75%)20,000 .. 50,0000%00:00 (00:00)
126 Blitzkrieg 2 Anthology Sep 16, 2014 $4.99N/A (N/A/75%)200,000 .. 500,0000%00:00 (00:00)
127 Saints Row: Gat out of Hell Jan 20, 2015 $14.99N/A (N/A/66%)500,000 .. 1,000,0000%00:00 (00:00)
128 Rampage Knights Sep 4, 2015 $11.99N/A (N/A/80%)200,000 .. 500,0000%00:00 (00:00)
129 Ultimate General: Gettysburg Oct 16, 2014 $14.99N/A (N/A/84%)200,000 .. 500,0000%00:00 (00:00)
130 Grim Fandango Remastered Jan 26, 2015 $14.99N/A (N/A/84%)200,000 .. 500,0000%00:00 (00:00)
131 Obduction Aug 24, 2016 $29.99N/A (N/A/76%)100,000 .. 200,0000%00:00 (00:00)
132 Chaos Reborn Oct 26, 2015 $9.99N/A (N/A/85%)50,000 .. 100,0000%00:00 (00:00)
133 Grand Ages: Medieval Sep 25, 2015 $19.99N/A (N/A/63%)100,000 .. 200,0000%00:00 (00:00)
134 Renowned Explorers: International Society Sep 2, 2015 $19.99N/A (N/A)200,000 .. 500,0000%00:00 (00:00)
135 LEGO Pirates of the Caribbean: The Video Game Oct 6, 2014 $19.99N/A (N/A)100,000 .. 200,0000%00:00 (00:00)
136 Heroes of Might & Magic III - HD Edition Jan 28, 2015 $14.99N/A (N/A/65%)1,000,000 .. 2,000,0000%00:00 (00:00)
137 Endless Space - Collection Jul 4, 2012 $9.99N/A (N/A/77%)1,000,000 .. 2,000,0000%00:00 (00:00)
138 Mercenary Kings: Reloaded Edition Mar 25, 2014 $19.99N/A (N/A/76%)200,000 .. 500,0000%00:00 (00:00)
139 Assassin’s Creed III Nov 20, 2012 N/AN/A (N/A/80%)1,000,000 .. 2,000,0000%00:00 (00:00)
140 DmC: Devil May Cry Jan 24, 2013 $29.99N/A (N/A/85%)1,000,000 .. 2,000,0000%00:00 (00:00)
141 Batman: Arkham Origins Oct 24, 2013 $19.99N/A (N/A/74%)2,000,000 .. 5,000,0000%00:00 (00:00)
142 Chaos on Deponia Nov 6, 2012 $19.99N/A (N/A/78%)200,000 .. 500,0000%00:00 (00:00)
143 Resident Evil: Operation Raccoon City May 18, 2012 $29.99N/A (N/A/48%)200,000 .. 500,0000%00:00 (00:00)
144 Resident Evil 6 Mar 22, 2013 $29.99N/A (N/A/69%)1,000,000 .. 2,000,0001.18%04:49 (01:36)
145 Sonic Adventure 2 Nov 19, 2012 $9.99N/A (N/A)500,000 .. 1,000,0000%00:00 (00:00)
146 Age of Empires II (2013) Apr 9, 2013 $19.99N/A (N/A/68%)5,000,000 .. 10,000,0001.76%01:37 (01:37)
147 Minimum Sep 10, 2014 N/AN/A (N/A/69%)200,000 .. 500,0000%00:00 (00:00)
148 Resident Evil Revelations May 20, 2013 $29.99N/A (N/A/77%)500,000 .. 1,000,0000%00:00 (00:00)
149 Deponia Aug 6, 2012 $9.99N/A (N/A/74%)500,000 .. 1,000,0001.54%00:02 (00:00)
150 Sins of a Solar Empire: Rebellion Jun 12, 2012 $39.99N/A (N/A/82%)500,000 .. 1,000,0000.61%01:40 (01:06)
151 Total War: ROME II - Emperor Edition Sep 2, 2013 $59.99N/A (N/A/76%)2,000,000 .. 5,000,0002.82%01:00 (00:39)
152 Port Royale 3 May 4, 2012 $14.99N/A (N/A)100,000 .. 200,0000%00:00 (00:00)
153 PlanetSide 2 Nov 20, 2012 FreeN/A (N/A/84%)5,000,000 .. 10,000,0001.52%01:54 (02:59)
154 Bayonetta Apr 11, 2017 $19.99N/A (N/A/90%)500,000 .. 1,000,0006.35%01:54 (02:30)
155 Stronghold Crusader HD Oct 21, 2013 $9.99N/A (N/A/78%)1,000,000 .. 2,000,0004.35%10:59 (10:57)
156 Super Mega Neo Pug May 11, 2016 $0.99N/A (N/A)200,000 .. 500,0000%00:00 (00:00)
157 Mafia II (Classic) Mar 22, 2011 N/AN/A (N/A/77%)2,000,000 .. 5,000,0000%00:00 (00:00)
158 Darksiders Warmastered Edition Nov 29, 2016 $19.99N/A (N/A)1,000,000 .. 2,000,0000%00:00 (00:00)
159 Stronghold Legends: Steam Edition Sep 15, 2016 $14.99N/A (N/A)200,000 .. 500,0000%00:00 (00:00)
160 Event[0] Sep 14, 2016 $19.99N/A (N/A/75%)100,000 .. 200,0000%00:00 (00:00)
161 Darksiders Sep 23, 2010 N/AN/A (N/A/83%)2,000,000 .. 5,000,0000%00:00 (00:00)
162 Farnham Fables Jun 20, 2016 $0.99N/A (N/A)100,000 .. 200,0000%00:00 (00:00)
163 Call of Duty: Black Ops Nov 9, 2010 $39.99N/A (N/A/81%)2,000,000 .. 5,000,0000%00:00 (00:00)
164 Killbot Jul 10, 2016 $0.99N/A (N/A)50,000 .. 100,0000%00:00 (00:00)
165 Homefront Mar 14, 2011 $19.99N/A (N/A/70%)2,000,000 .. 5,000,0000%00:00 (00:00)
166 Hiiro Jul 12, 2016 $2.99N/A (N/A)100,000 .. 200,0000%00:00 (00:00)
167 Devil May Cry 4 Jul 8, 2008 $19.99N/A (N/A/78%)20,000 .. 50,0000%00:00 (00:00)
168 Quantum Break Sep 29, 2016 $39.99N/A (N/A/66%)1,000,000 .. 2,000,0000%00:00 (00:00)
169 Broken Sword: Director's Cut Sep 2, 2010 $5.99N/A (N/A)100,000 .. 200,0000%00:00 (00:00)
170 Crime Secrets: Crimson Lily Jul 14, 2016 $2.99N/A (N/A)0 .. 20,0000%00:00 (00:00)
171 Syberia II May 19, 2011 $12.99N/A (N/A/80%)500,000 .. 1,000,0000%00:00 (00:00)
172 Strike Vector EX Jul 19, 2017 N/AN/A (N/A)100,000 .. 200,0000%00:00 (00:00)
173 Blood Bowl - Legendary Edition Oct 28, 2010 $1.99N/A (N/A/73%)200,000 .. 500,0000%00:00 (00:00)
174 Z.I.O.N. May 7, 2016 $4.99N/A (N/A)100,000 .. 200,0000%00:00 (00:00)
175 Stronghold 3 Gold May 25, 2012 $29.99N/A (N/A)500,000 .. 1,000,0000%00:00 (00:00)
176 Yomawari: Night Alone Oct 25, 2016 $9.99N/A (N/A)50,000 .. 100,0000%00:00 (00:00)
177 Wargame: European Escalation Feb 22, 2012 $9.99N/A (N/A/81%)500,000 .. 1,000,0000%00:00 (00:00)
178 Home Behind Jun 2, 2016 $5.99N/A (N/A)200,000 .. 500,0000%00:00 (00:00)
179 Assassin’s Creed Brotherhood Mar 22, 2011 $19.99N/A (N/A/88%)1,000,000 .. 2,000,0000%00:00 (00:00)
180 Radical Spectrum: Volume 1 Jul 8, 2016 $0.99N/A (N/A)50,000 .. 100,0000%00:00 (00:00)
181 Stronghold HD Oct 21, 2013 $5.99N/A (N/A/81%)1,000,000 .. 2,000,0000%00:00 (00:00)
182 Impact Winter May 22, 2017 $19.99N/A (N/A/63%)0 .. 20,0000%00:00 (00:00)
183 Might & Magic: Heroes VI Oct 13, 2011 $19.99N/A (N/A/77%)500,000 .. 1,000,0000%00:00 (00:00)
184 Halo Wars: Definitive Edition Apr 20, 2017 $19.99N/A (N/A)200,000 .. 500,0000%00:00 (00:00)
185 Stronghold 2: Steam Edition $14.99N/A (N/A)0 .. 20,0000%00:00 (00:00)
186 Rick and Morty: Virtual Rick-ality Apr 20, 2017 $29.99N/A (N/A/75%)100,000 .. 200,0000%00:00 (00:00)
187 Anno 2070 Nov 17, 2011 $19.99N/A (N/A/83%)500,000 .. 1,000,0003.13%00:11 (00:03)
188 Cossacks 3 Sep 20, 2016 $19.99N/A (N/A)200,000 .. 500,0000%00:00 (00:00)
189 Gurumin: A Monstrous Adventure Mar 30, 2015 $9.99N/A (N/A)50,000 .. 100,0000%00:00 (00:00)
190 Town of Salem Dec 15, 2014 $4.99N/A (N/A)1,000,000 .. 2,000,0003.66%02:01 (02:00)
191 DYNASTY WARRIORS 8 Empires Feb 26, 2015 $49.99N/A (N/A)50,000 .. 100,0000%00:00 (00:00)
192 Runestone Keeper Mar 2, 2015 $9.99N/A (N/A)200,000 .. 500,0000%00:00 (00:00)
193 Tharsis Jan 11, 2016 $14.99N/A (N/A/61%)200,000 .. 500,0000%00:00 (00:00)
194 Ember Sep 9, 2016 $9.99N/A (N/A/70%)50,000 .. 100,0000%00:00 (00:00)
195 Total War: ATTILA Feb 17, 2015 $44.99N/A (N/A/80%)1,000,000 .. 2,000,0000%00:00 (00:00)
196 Sinless + OST Dec 16, 2015 $4.99N/A (N/A)50,000 .. 100,0000%00:00 (00:00)
197 Worms W.M.D Aug 23, 2016 $29.99N/A (N/A/79%)500,000 .. 1,000,0007.14%02:36 (02:20)
198 Man O' War: Corsair - Warhammer Naval Battles Apr 19, 2017 $5.99N/A (N/A)20,000 .. 50,0000%00:00 (00:00)
199 Anna's Quest Jul 2, 2015 $19.99N/A (N/A/74%)200,000 .. 500,0000%00:00 (00:00)
200 Agent Awesome Feb 17, 2015 $1.99N/A (N/A)200,000 .. 500,0000%00:00 (00:00)
201 Devil May Cry 4 Special Edition Jun 23, 2015 $24.99N/A (N/A)500,000 .. 1,000,0002.5%09:51 (03:17)
202 Trine 3: The Artifacts of Power Aug 20, 2015 $21.99N/A (N/A)500,000 .. 1,000,0000%00:00 (00:00)
203 Gems of War - Puzzle RPG Nov 20, 2014 FreeN/A (N/A)500,000 .. 1,000,0000%00:00 (00:00)
204 SteamWorld Heist Jun 7, 2016 $14.99N/A (N/A/81%)500,000 .. 1,000,0000%00:00 (00:00)
205 Ace of Spades: Battle Builder N/AN/A (N/A)1,000,000 .. 2,000,0000%00:00 (00:00)
206 Deadfall Adventures Nov 15, 2013 $19.99N/A (N/A/53%)100,000 .. 200,0000%00:00 (00:00)
207 Super House of Dead Ninjas Feb 18, 2013 $6.99N/A (N/A/79%)100,000 .. 200,0000%00:00 (00:00)
208 Company of Heroes 2 Jun 25, 2013 $19.99N/A (N/A/80%)2,000,000 .. 5,000,0002.19%04:03 (06:21)
209 Brothers - A Tale of Two Sons Sep 3, 2013 $14.99N/A (N/A/90%)1,000,000 .. 2,000,0001.1%00:05 (00:01)
210 Stronghold Crusader 2 Sep 22, 2014 $39.99N/A (N/A/65%)1,000,000 .. 2,000,0000%00:00 (00:00)
211 Brutal Legend Feb 26, 2013 $14.99N/A (N/A/80%)2,000,000 .. 5,000,0000.7%00:32 (00:10)
212 Shadow Warrior Sep 26, 2013 $39.99N/A (N/A/73%)2,000,000 .. 5,000,0000%00:00 (00:00)
213 Full Mojo Rampage May 8, 2014 $12.99N/A (N/A)200,000 .. 500,0000%00:00 (00:00)
214 Worms Clan Wars Aug 15, 2013 $24.99N/A (N/A/73%)500,000 .. 1,000,0002.5%01:37 (00:32)
215 LOST PLANET 3 Aug 26, 2013 $24.99N/A (N/A)200,000 .. 500,0002.94%03:14 (01:04)
216 Castlevania: Lords of Shadow – Ultimate Edition Aug 27, 2013 $29.99N/A (N/A)200,000 .. 500,0000%00:00 (00:00)
217 Age of Wonders III Mar 31, 2014 $29.99N/A (N/A/80%)1,000,000 .. 2,000,0000.38%00:21 (00:07)
218 Wargame: Airland Battle May 29, 2013 $19.99N/A (N/A/80%)200,000 .. 500,0000%00:00 (00:00)
219 Galactic Civilizations III May 14, 2015 $39.99N/A (N/A/81%)500,000 .. 1,000,0000%00:00 (00:00)
220 Homefront: The Revolution May 17, 2016 $19.99N/A (N/A/54%)500,000 .. 1,000,0002.7%09:23 (03:07)
221 Full Throttle Remastered Apr 18, 2017 $14.99N/A (N/A/77%)200,000 .. 500,0000%00:00 (00:00)
222 Has-Been Heroes Mar 28, 2017 $19.99N/A (N/A/63%)20,000 .. 50,0000%00:00 (00:00)
223 The Bureau: XCOM Declassified Aug 19, 2013 $19.99N/A (N/A/66%)2,000,000 .. 5,000,0000%00:00 (00:00)
224 Neon Space 2 Jul 26, 2016 $1.09N/A (N/A)50,000 .. 100,0000%00:00 (00:00)
225 Assassin's Creed Revelations Nov 29, 2011 $19.99N/A (N/A/80%)500,000 .. 1,000,0000%00:00 (00:00)
226 RiME May 26, 2017 $29.99N/A (N/A/78%)200,000 .. 500,0000%00:00 (00:00)
227 Sid Meier's Civilization: Beyond Earth Oct 23, 2014 $39.99N/A (N/A/81%)1,000,000 .. 2,000,0000%00:00 (00:00)
228 Antihero Jul 10, 2017 $3.74N/A (N/A/81%)50,000 .. 100,0000%00:00 (00:00)
229 Galactic Civilizations II: Ultimate Edition Dec 2, 2011 $9.99N/A (N/A/92%)500,000 .. 1,000,0000%00:00 (00:00)
230 Kingdom: New Lands Aug 9, 2016 $14.99N/A (N/A)500,000 .. 1,000,0000%00:00 (00:00)
231 Darkest Hour: A Hearts of Iron Game Apr 8, 2011 $9.99N/A (N/A/81%)200,000 .. 500,0000%00:00 (00:00)
232 The Disney Afternoon Collection Apr 18, 2017 $19.99N/A (N/A)0 .. 20,0000%00:00 (00:00)
233 Call of Duty: Black Ops II Nov 12, 2012 $59.99N/A (N/A/74%)2,000,000 .. 5,000,0001.97%01:39 (01:38)
234 Noob Squad Oct 5, 2016 $0.99N/A (N/A)20,000 .. 50,0000%00:00 (00:00)
235 Age of Empires III (2007) Jan 5, 2012 $39.99N/A (N/A/81%)2,000,000 .. 5,000,0001.27%00:02 (00:00)
236 Merger 3D Sep 29, 2016 $2.99N/A (N/A)200,000 .. 500,0000%00:00 (00:00)
237 Tomb Raider Mar 4, 2013 $2.99N/A (N/A/86%)5,000,000 .. 10,000,0000.25%00:58 (00:38)
238 8-Bit Hordes Aug 12, 2016 $14.99N/A (N/A)20,000 .. 50,0000%00:00 (00:00)
239 Alan Wake Feb 16, 2012 $14.99N/A (N/A/83%)2,000,000 .. 5,000,0000.85%04:09 (01:23)
240 TAIKU MANSION Feb 13, 2017 $0.99N/A (N/A)100,000 .. 200,0000%00:00 (00:00)
241 Max Payne 3 May 31, 2012 $19.99N/A (N/A/87%)1,000,000 .. 2,000,0000%00:00 (00:00)
242 Warhammer 40,000: Sanctus Reach Jan 19, 2017 $29.99N/A (N/A/69%)50,000 .. 100,0000%00:00 (00:00)
243 Crysis 2 - Maximum Edition Mar 22, 2011 $29.99N/A (N/A)1,000,000 .. 2,000,0000%00:00 (00:00)
244 8-Bit Invaders! Dec 16, 2016 $14.99N/A (N/A)20,000 .. 50,0000%00:00 (00:00)
245 Infested Planet Mar 6, 2014 $14.99N/A (N/A/75%)200,000 .. 500,0000%00:00 (00:00)
246 Ultimate General: Civil War Jul 14, 2017 $11.99N/A (N/A)200,000 .. 500,0000%00:00 (00:00)
247 Prototype 2 Jul 24, 2012 $39.99N/A (N/A/76%)500,000 .. 1,000,0003.92%02:15 (01:30)
248 Rusty Lake: Roots Oct 20, 2016 $2.99N/A (N/A/75%)100,000 .. 200,0000%00:00 (00:00)
249 Might & Magic: Clash of Heroes Sep 22, 2011 $9.99N/A (N/A/76%)200,000 .. 500,0000%00:00 (00:00)
250 911 Operator Feb 24, 2017 $14.99N/A (N/A/68%)500,000 .. 1,000,0000%00:00 (00:00)
251 Worms Revolution Oct 10, 2012 $14.99N/A (N/A/73%)500,000 .. 1,000,0001.23%01:15 (00:25)
252 Take Thy Throne Jul 5, 2016 $1.99N/A (N/A)100,000 .. 200,0000%00:00 (00:00)
253 Men of War: Assault Squad Feb 24, 2011 $9.99N/A (N/A/77%)500,000 .. 1,000,0003.13%00:06 (00:02)
254 Carmageddon: Max Damage Oct 27, 2016 $16.99N/A (N/A)200,000 .. 500,0000%00:00 (00:00)
255 Batman: Arkham City - Game of the Year Edition Sep 7, 2012 $19.99N/A (N/A/91%)2,000,000 .. 5,000,0000.56%07:00 (02:20)
256 Goliath May 12, 2016 $11.99N/A (N/A/57%)20,000 .. 50,0000%00:00 (00:00)
257 SAMURAI WARRIORS 4-II Sep 29, 2015 $49.99N/A (N/A)20,000 .. 50,0000%00:00 (00:00)
258 Battlefleet Gothic: Armada Apr 21, 2016 $19.99N/A (N/A/77%)200,000 .. 500,0000%00:00 (00:00)
259 Wolfenstein: The Old Blood May 4, 2015 $19.99N/A (N/A/76%)500,000 .. 1,000,0000%00:00 (00:00)
260 Total War: WARHAMMER May 24, 2016 $59.99N/A (N/A/86%)2,000,000 .. 5,000,0002.33%01:23 (00:52)
261 Cultures - Northland Mar 26, 2015 $0.49N/A (N/A)100,000 .. 200,0000%00:00 (00:00)
262 Battle Brothers Mar 24, 2017 $29.99N/A (N/A/80%)500,000 .. 1,000,0000%00:00 (00:00)
263 The Descendant Mar 24, 2016 $14.99N/A (N/A/59%)500,000 .. 1,000,0000%00:00 (00:00)
264 Savage Resurrection Aug 18, 2016 N/AN/A (N/A)50,000 .. 100,0000%00:00 (00:00)
265 The Silent Age May 29, 2015 $9.99N/A (N/A)200,000 .. 500,0000%00:00 (00:00)
266 Kingdom: Classic Oct 21, 2015 $4.99N/A (N/A/74%)1,000,000 .. 2,000,0000.7%00:40 (00:13)
267 Space Run Galaxy Jun 17, 2016 $14.99N/A (N/A/75%)100,000 .. 200,0000%00:00 (00:00)
268 Halcyon 6: Starbase Commander Sep 8, 2016 $14.99N/A (N/A/71%)100,000 .. 200,0000%00:00 (00:00)
269 Curious Expedition Sep 2, 2016 $14.99N/A (N/A)200,000 .. 500,0000%00:00 (00:00)
270 King's Quest Jul 28, 2015 FreeN/A (N/A)200,000 .. 500,0000%00:00 (00:00)
271 ROMANCE OF THE THREE KINGDOMS XIII Jan 27, 2016 $59.99N/A (N/A)200,000 .. 500,0000%00:00 (00:00)
272 Hero of the Kingdom II Feb 20, 2015 $0.95N/A (N/A)100,000 .. 200,0000%00:00 (00:00)
273 Blood Bowl 2 Sep 22, 2015 $19.99N/A (N/A/76%)500,000 .. 1,000,0005.56%01:19 (00:26)
274 Plague Inc: Evolved Feb 18, 2016 $14.99N/A (N/A)2,000,000 .. 5,000,0000%00:00 (00:00)
275 Dreamfall Chapters Jul 21, 2017 $24.99N/A (N/A/71%)200,000 .. 500,0000%00:00 (00:00)
276 Unholy Heights Oct 4, 2013 $3.99N/A (N/A)100,000 .. 200,0000%00:00 (00:00)
277 Bionic Dues Oct 8, 2013 $9.99N/A (N/A/71%)200,000 .. 500,0000%00:00 (00:00)
278 The Wolf Among Us Oct 11, 2013 $14.99N/A (N/A/85%)1,000,000 .. 2,000,0000%00:00 (00:00)
279 Castlevania: Lords of Shadow 2 Feb 25, 2014 $39.99N/A (N/A/58%)200,000 .. 500,0000%00:00 (00:00)
280 Wargame: Red Dragon Apr 17, 2014 $29.99N/A (N/A/78%)1,000,000 .. 2,000,0006%01:10 (01:10)
281 Goodbye Deponia Oct 17, 2013 $19.99N/A (N/A/80%)200,000 .. 500,0000%00:00 (00:00)
282 INFRA Jan 15, 2016 $29.99N/A (N/A)20,000 .. 50,0000%00:00 (00:00)
283 Middle-earth: Shadow of Mordor Sep 30, 2014 $19.99N/A (N/A/84%)2,000,000 .. 5,000,0001%03:20 (01:50)
284 StarDrive 2 Apr 9, 2015 $29.99N/A (N/A/70%)50,000 .. 100,0000%00:00 (00:00)
285 Memoria Aug 29, 2013 $3.49N/A (N/A/79%)200,000 .. 500,0000%00:00 (00:00)
286 Mad Max Sep 1, 2015 $19.99N/A (N/A/73%)2,000,000 .. 5,000,0000.83%00:02 (00:00)
287 Men of War: Assault Squad 2 May 15, 2014 $29.99N/A (N/A/68%)1,000,000 .. 2,000,0003.45%01:26 (00:57)
288 Warhammer: End Times - Vermintide Oct 23, 2015 $29.99N/A (N/A/79%)1,000,000 .. 2,000,0000%00:00 (00:00)
289 Tropico 5 May 23, 2014 $19.99N/A (N/A/75%)1,000,000 .. 2,000,0001.82%01:48 (00:36)
290 Cavern Escape Extremely Hard game!!! Feb 20, 2017 $3.99N/A (N/A)50,000 .. 100,0000%00:00 (00:00)
291 Yonder: The Cloud Catcher Chronicles Jul 18, 2017 $24.99N/A (N/A/70%)100,000 .. 200,0000%00:00 (00:00)
292 The Butterfly Sign Dec 13, 2016 $4.99N/A (N/A)200,000 .. 500,0000%00:00 (00:00)
293 Steampunk Syndicate Apr 13, 2017 $1.99N/A (N/A)50,000 .. 100,0000%00:00 (00:00)
294 Realpolitiks Feb 16, 2017 $14.99N/A (N/A/52%)20,000 .. 50,0000%00:00 (00:00)
295 Crisis in the Kremlin Mar 20, 2017 $4.99N/A (N/A)100,000 .. 200,0000%00:00 (00:00)
296 ICEY Nov 17, 2016 $10.99N/A (N/A/84%)500,000 .. 1,000,0000%00:00 (00:00)
297 Shadows 2: Perfidia Mar 24, 2017 $9.99N/A (N/A)200,000 .. 500,0000%00:00 (00:00)
298 Soda Dungeon Feb 6, 2017 FreeN/A (N/A)500,000 .. 1,000,0000%00:00 (00:00)
299 Battle Bruise Apr 22, 2017 $0.49N/A (N/A)20,000 .. 50,0000%00:00 (00:00)
300 Kingdoms and Castles Jul 20, 2017 $9.99N/A (N/A)1,000,000 .. 2,000,0000%00:00 (00:00)
301 Thimbleweed Park Mar 30, 2017 $19.99N/A (N/A/84%)200,000 .. 500,0000%00:00 (00:00)
302 State of Anarchy: Master of Mayhem Mar 31, 2017 $2.99N/A (N/A)100,000 .. 200,0000%00:00 (00:00)
303 Slingshot people Oct 21, 2016 $0.99N/A (N/A)500,000 .. 1,000,0000%00:00 (00:00)
304 Marvel's Guardians of the Galaxy: The Telltale Series Apr 18, 2017 N/AN/A (N/A/78%)50,000 .. 100,0000%00:00 (00:00)

Geography of active players over time, share:

Access restricted.

This feature is only available to users with special access rights. Sorry.

If you want to proceed, you need to register or log in first and then back Steam Spy on Patreon. Look for Indie or Pro pledge.

Don't forget to use the same email as on Steam Spy!

Tags over time:

Access restricted.

This feature is only available to users with special access rights. Sorry.

If you want to proceed, you need to register or log in first and then back Steam Spy on Patreon. Look for Indie or Pro pledge.

Don't forget to use the same email as on Steam Spy!

Owners of this game also own:

Access restricted.

This feature is only available to users with special access rights. Sorry.

If you want to proceed, you need to register or log in first and then back Steam Spy on Patreon. Look for Indie or Pro pledge.

Don't forget to use the same email as on Steam Spy!

Playtime distribution:

Access restricted.

This feature is only available to users with special access rights. Sorry.

If you want to proceed, you need to register or log in first and then back Steam Spy on Patreon. Look for Indie or Pro pledge.

Don't forget to use the same email as on Steam Spy!

Playtime (2 weeks):

Access restricted.

This feature is only available to users with special access rights. Sorry.

If you want to proceed, you need to register or log in first and then back Steam Spy on Patreon. Look for Indie or Pro pledge.

Don't forget to use the same email as on Steam Spy!

User reviews:

Login required.

Please register or log in to see this information.